KE0TRL Weather Reports


time (UTC)temp
F
wind
direction
speed
knots
gust
knots
rain 1hr
in
rain 24hr
in
rain mn
in
humidity
%
barometer
mb
20240222100103 45 270 1.7 1.7 0.00 0.00 0.00 54 1007.8
20240222095703 45 248 1.7 1.7 0.00 0.00 0.00 54 1007.8
20240222095403 44 293 0.0 0.0 0.00 0.00 0.00 55 1007.8
20240222095102 44 225 0.0 0.0 0.00 0.00 0.00 55 1007.8
20240222094902 44 203 0.0 0.0 0.00 0.00 0.00 55 1007.8
20240222094802 44 225 0.0 0.0 0.00 0.00 0.00 55 1007.8
20240222094503 44 203 0.0 0.0 0.00 0.00 0.00 55 1007.8
20240222094402 44 180 0.0 0.0 0.00 0.00 0.00 55 1007.8
20240222094103 44 180 0.0 0.0 0.00 0.00 0.00 55 1008.1
20240222094003 44 225 0.0 0.0 0.00 0.00 0.00 55 1008.1
20240222093903 44 225 0.0 0.0 0.00 0.00 0.00 55 1008.1
20240222093802 44 180 0.0 0.0 0.00 0.00 0.00 55 1008.1
20240222093703 44 180 0.0 0.0 0.00 0.00 0.00 54 1008.1
20240222093503 44 225 0.0 0.0 0.00 0.00 0.00 54 1008.1
20240222093303 45 23 0.0 0.0 0.00 0.00 0.00 53 1008.1
20240222092902 45 158 0.0 0.0 0.00 0.00 0.00 53 1008.1
20240222092403 45 180 1.7 1.7 0.00 0.00 0.00 53 1008.1
20240222092305 45 338 0.9 0.9 0.00 0.00 0.00 53 1007.8
20240222092203 45 338 0.9 0.9 0.00 0.00 0.00 53 1008.1
20240222092103 45 180 0.9 0.9 0.00 0.00 0.00 53 1007.8
20240222091803 45 180 0.0 0.0 0.00 0.00 0.00 50 1007.8
20240222091602 45 180 0.0 0.0 0.00 0.00 0.00 50 1007.8
20240222091504 46 180 0.0 0.9 0.00 0.00 0.00 50 1007.8
20240222091302 46 203 0.0 0.9 0.00 0.00 0.00 50 1007.8
20240222090903 46 248 0.9 1.7 0.00 0.00 0.00 50 1007.8
20240222090702 46 315 0.9 1.7 0.00 0.00 0.00 50 1007.8
20240222090602 46 248 0.9 1.7 0.00 0.00 0.00 50 1007.8
20240222090303 46 293 0.9 1.7 0.00 0.00 0.00 50 1007.8
20240222090003 46 225 0.9 0.9 0.00 0.00 0.00 50 1007.8
20240222085802 46 270 0.9 0.9 0.00 0.00 0.00 50 1008.1
20240222085702 46 270 0.0 0.9 0.00 0.00 0.00 50 1008.1
20240222085602 46 270 0.0 0.9 0.00 0.00 0.00 50 1008.1
20240222085403 46 338 0.9 0.9 0.00 0.00 0.00 50 1008.1
20240222085202 46 315 0.0 0.0 0.00 0.00 0.00 50 1008.1
20240222084902 46 248 0.0 0.9 0.00 0.00 0.00 50 1008.1
20240222084802 46 270 0.0 0.9 0.00 0.00 0.00 50 1008.1
20240222084603 46 270 0.9 0.9 0.00 0.00 0.00 50 1008.1
20240222082402 47 248 0.9 1.7 0.00 0.00 0.00 50 1008.1
20240222082203 47 248 0.9 1.7 0.00 0.00 0.00 50 1008.1
20240222082102 47 203 0.9 1.7 0.00 0.00 0.00 50 1008.1
20240222082004 47 270 1.7 1.7 0.00 0.00 0.00 50 1008.1
20240222081602 47 203 1.7 1.7 0.00 0.00 0.00 50 1008.1
20240222081502 47 270 1.7 1.7 0.00 0.00 0.00 50 1008.1
20240222081302 47 270 1.7 1.7 0.00 0.00 0.00 50 1008.1
20240222081202 47 0 1.7 1.7 0.00 0.00 0.00 50 1008.1
20240222080902 47 225 1.7 1.7 0.00 0.00 0.00 50 1008.1
20240222080703 47 68 0.9 1.7 0.00 0.00 0.00 50 1008.1
20240222080602 47 293 0.9 1.7 0.00 0.00 0.00 50 1008.5
20240222080502 47 203 0.9 1.7 0.00 0.00 0.00 50 1008.5
20240222080403 47 203 1.7 1.7 0.00 0.00 0.00 50 1008.1
20240222080103 47 315 1.7 1.7 0.00 0.00 0.00 50 1008.5
20240222080003 47 315 1.7 1.7 0.00 0.00 0.00 50 1008.1
20240222075903 47 225 1.7 1.7 0.00 0.00 0.00 50 1008.1
20240222075802 46 225 1.7 1.7 0.00 0.00 0.00 50 1008.5
20240222075702 46 203 0.9 1.7 0.00 0.00 0.00 50 1008.5
20240222075402 46 270 0.9 0.9 0.00 0.00 0.00 50 1008.1
20240222075305 46 225 0.9 1.7 0.00 0.00 0.00 50 1008.1
20240222075202 46 225 0.0 1.7 0.00 0.00 0.00 50 1008.1
20240222075102 46 180 0.0 1.7 0.00 0.00 0.00 50 1008.1
20240222074803 46 225 1.7 2.6 0.00 0.00 0.00 50 1008.5
20240222074602 46 248 1.7 2.6 0.00 0.00 0.00 50 1008.5
20240222074504 46 270 1.7 2.6 0.00 0.00 0.00 50 1008.1
20240222074303 46 248 0.0 1.7 0.00 0.00 0.00 50 1008.1
20240222074202 46 270 0.0 1.7 0.00 0.00 0.00 50 1008.1
20240222074102 46 270 1.7 1.7 0.00 0.00 0.00 50 1008.1
20240222073903 47 270 0.9 1.7 0.00 0.00 0.00 50 1008.5
20240222073702 47 248 1.7 1.7 0.00 0.00 0.00 50 1008.1
20240222073602 47 270 0.9 1.7 0.00 0.00 0.00 50 1008.5
20240222073402 47 248 1.7 1.7 0.00 0.00 0.00 50 1008.5
20240222073203 47 248 1.7 1.7 0.00 0.00 0.00 49 1008.1
20240222073004 47 270 1.7 2.6 0.00 0.00 0.00 49 1008.5
20240222072802 48 203 0.9 2.6 0.00 0.00 0.00 49 1008.5
20240222072603 48 315 1.7 2.6 0.00 0.00 0.00 48 1008.5
20240222072503 48 315 1.7 2.6 0.00 0.00 0.00 48 1008.1
20240222072402 48 270 0.9 2.6 0.00 0.00 0.00 48 1008.1
20240222072305 48 270 1.7 2.6 0.00 0.00 0.00 48 1008.5
20240222071603 48 270 2.6 2.6 0.00 0.00 0.00 48 1008.1
20240222071502 48 270 1.7 2.6 0.00 0.00 0.00 48 1008.1
20240222071403 48 270 1.7 2.6 0.00 0.00 0.00 48 1007.8
20240222071203 48 248 1.7 2.6 0.00 0.00 0.00 48 1008.1
20240222071103 48 248 2.6 3.5 0.00 0.00 0.00 48 1008.1
20240222071003 48 270 2.6 3.5 0.00 0.00 0.00 48 1007.8
20240222070902 48 270 2.6 3.5 0.00 0.00 0.00 48 1007.8
20240222070702 48 338 2.6 4.3 0.00 0.00 0.00 48 1008.1
20240222070503 48 248 3.5 4.3 0.00 0.00 0.00 48 1007.8
20240222070302 48 338 2.6 4.3 0.00 0.00 0.00 48 1007.8
20240222065802 48 315 3.5 4.3 0.00 0.00 0.00 48 1007.8
20240222065603 48 248 3.5 4.3 0.00 0.00 0.00 48 1007.8
20240222065402 48 293 4.3 4.3 0.00 0.00 0.00 48 1007.8
20240222065305 48 338 3.5 3.5 0.00 0.00 0.00 48 1007.8
20240222065202 48 23 3.5 3.5 0.00 0.00 0.00 48 1007.8
20240222064602 49 270 3.5 3.5 0.00 0.00 0.00 46 1007.8
20240222064403 49 338 2.6 2.6 0.00 0.00 0.00 46 1007.8
20240222064203 49 315 2.6 2.6 0.00 0.00 0.00 46 1007.8
20240222064102 49 225 1.7 2.6 0.00 0.00 0.00 46 1007.8
20240222063903 49 270 2.6 2.6 0.00 0.00 0.00 46 1007.8
20240222063702 49 225 2.6 2.6 0.00 0.00 0.00 46 1007.8
20240222063503 49 248 2.6 2.6 0.00 0.00 0.00 46 1007.8
20240222063102 49 338 1.7 3.5 0.00 0.00 0.00 46 1007.8
20240222063003 49 338 3.5 3.5 0.00 0.00 0.00 46 1007.5
20240222062903 49 338 1.7 3.5 0.00 0.00 0.00 46 1007.8
20240222062603 50 270 3.5 3.5 0.00 0.00 0.00 45 1007.5
20240222062503 50 293 2.6 2.6 0.00 0.00 0.00 45 1007.5
20240222062305 50 270 2.6 2.6 0.00 0.00 0.00 45 1007.5
20240222062102 50 270 1.7 2.6 0.00 0.00 0.00 45 1007.5
20240222062003 50 293 2.6 2.6 0.00 0.00 0.00 45 1007.5
20240222061903 50 270 2.6 2.6 0.00 0.00 0.00 45 1007.5
20240222061702 50 270 2.6 3.5 0.00 0.00 0.00 46 1007.5
20240222061503 50 225 1.7 3.5 0.00 0.00 0.00 46 1007.5
20240222061402 50 248 3.5 3.5 0.00 0.00 0.00 46 1007.1
20240222061303 50 203 1.7 2.6 0.00 0.00 0.00 46 1007.5
20240222061203 50 203 1.7 2.6 0.00 0.00 0.00 46 1007.1
20240222061003 50 248 2.6 3.5 0.00 0.00 0.00 46 1007.5
20240222060803 50 270 2.6 3.5 0.00 0.00 0.00 46 1007.1
20240222060603 50 270 3.5 3.5 0.00 0.00 0.00 46 1007.1
20240222060503 49 293 2.6 2.6 0.00 0.00 0.00 46 1007.5
20240222060303 49 338 2.6 2.6 0.00 0.00 0.00 46 1007.5
20240222055903 49 270 2.6 2.6 0.00 0.00 0.00 46 1007.5
20240222055702 49 225 2.6 2.6 0.00 0.00 0.00 46 1007.5
20240222055503 49 293 2.6 2.6 0.00 0.00 0.00 46 1007.5
20240222055305 49 203 1.7 2.6 0.00 0.00 0.00 46 1007.8
20240222055203 49 338 2.6 2.6 0.00 0.00 0.00 46 1007.8
20240222055102 50 338 1.7 2.6 0.00 0.00 0.00 46 1007.8
20240222054802 50 270 2.6 3.5 0.00 0.00 0.00 46 1007.8
20240222054602 50 0 1.7 3.5 0.00 0.00 0.00 46 1007.8
20240222054502 50 225 3.5 4.3 0.00 0.00 0.00 46 1008.1
20240222054402 50 248 3.5 4.3 0.00 0.00 0.00 46 1007.8
20240222054303 50 248 3.5 4.3 0.00 0.00 0.00 46 1008.1
20240222054203 50 23 3.5 4.3 0.00 0.00 0.00 46 1008.1
20240222054102 50 23 4.3 4.3 0.00 0.00 0.00 46 1008.1
20240222053903 50 203 2.6 4.3 0.00 0.00 0.00 46 1008.1
20240222053702 50 225 1.7 4.3 0.00 0.00 0.00 46 1008.5
20240222053603 50 293 4.3 4.3 0.00 0.00 0.00 46 1008.1
20240222053402 50 338 1.7 3.5 0.00 0.00 0.00 46 1008.1
20240222053302 50 270 3.5 3.5 0.00 0.00 0.00 46 1008.1
20240222053203 50 270 3.5 3.5 0.00 0.00 0.00 48 1008.1
20240222053002 50 248 2.6 2.6 0.00 0.00 0.00 48 1008.1
20240222052802 49 248 1.7 2.6 0.00 0.00 0.00 48 1008.5
20240222052403 49 270 2.6 2.6 0.00 0.00 0.00 48 1008.5
20240222052305 49 270 1.7 2.6 0.00 0.00 0.00 48 1008.5
20240222052003 49 270 1.7 1.7 0.00 0.00 0.00 50 1008.5
20240222051602 49 225 1.7 1.7 0.00 0.00 0.00 50 1008.5
20240222051402 49 225 0.0 0.9 0.00 0.00 0.00 50 1008.8
20240222051203 49 225 0.0 0.9 0.00 0.00 0.00 50 1008.5
20240222051003 49 293 0.9 1.7 0.00 0.00 0.00 50 1008.5
20240222050902 49 158 0.9 1.7 0.00 0.00 0.00 50 1008.5
20240222050802 49 158 0.0 1.7 0.00 0.00 0.00 50 1008.5
20240222050603 49 225 1.7 1.7 0.00 0.00 0.00 50 1008.5
20240222050402 49 270 1.7 1.7 0.00 0.00 0.00 50 1008.5
20240222050302 49 248 0.9 1.7 0.00 0.00 0.00 50 1008.5
20240222050203 49 248 1.7 1.7 0.00 0.00 0.00 50 1008.5
20240222050003 49 248 0.0 1.7 0.00 0.00 0.00 50 1008.5
20240222045903 49 270 0.9 1.7 0.00 0.00 0.00 50 1008.5
20240222045703 49 270 1.7 2.6 0.00 0.00 0.00 50 1008.5
20240222045602 49 270 0.9 2.6 0.00 0.00 0.00 50 1008.5
20240222045103 49 270 1.7 2.6 0.00 0.00 0.00 50 1008.5
20240222044903 49 270 2.6 2.6 0.00 0.00 0.00 50 1008.5
20240222044803 49 315 1.7 2.6 0.00 0.00 0.00 50 1008.5
20240222044703 49 315 2.6 2.6 0.00 0.00 0.00 50 1008.5
20240222044504 49 225 1.7 2.6 0.00 0.00 0.00 50 1008.5
20240222044302 49 270 1.7 2.6 0.00 0.00 0.00 50 1008.5
20240222044202 49 45 0.9 2.6 0.00 0.00 0.00 50 1008.5
20240222044102 49 45 2.6 2.6 0.00 0.00 0.00 50 1008.5
20240222043703 49 293 1.7 1.7 0.00 0.00 0.00 50 1008.5
20240222043603 49 225 1.7 1.7 0.00 0.00 0.00 50 1008.5
20240222043403 49 248 0.9 2.6 0.00 0.00 0.00 50 1008.5
20240222042802 50 270 2.6 3.5 0.00 0.00 0.00 50 1008.5
20240222042702 50 270 1.7 6.1 0.00 0.00 0.00 50 1008.5
20240222042603 50 270 1.7 6.1 0.00 0.00 0.00 50 1008.5
20240222042402 50 248 3.5 6.1 0.00 0.00 0.00 50 1008.5
20240222042202 50 293 6.1 6.1 0.00 0.00 0.00 48 1008.5
20240222042103 50 248 3.5 3.5 0.00 0.00 0.00 48 1008.5
20240222041903 50 270 3.5 3.5 0.00 0.00 0.00 48 1008.5
20240222041703 50 270 1.7 3.5 0.00 0.00 0.00 48 1008.5
20240222041503 50 270 2.6 3.5 0.00 0.00 0.00 48 1008.5
20240222041403 50 248 3.5 3.5 0.00 0.00 0.00 48 1008.5
20240222041203 50 293 3.5 3.5 0.00 0.00 0.00 48 1008.5
20240222040903 50 0 2.6 2.6 0.00 0.00 0.00 48 1008.8
20240222040703 51 270 2.6 3.5 0.00 0.00 0.00 48 1008.8
20240222040403 51 315 2.6 3.5 0.00 0.00 0.00 48 1008.5
20240222040202 51 315 3.5 3.5 0.00 0.00 0.00 46 1008.8
20240222040104 51 315 3.5 3.5 0.00 0.00 0.00 46 1008.5
20240222040003 51 315 2.6 2.6 0.00 0.00 0.00 46 1008.8
20240222035903 51 270 1.7 2.6 0.00 0.00 0.00 46 1008.8
20240222035702 51 270 2.6 2.6 0.00 0.00 0.00 46 1008.8
20240222035603 51 0 1.7 2.6 0.00 0.00 0.00 46 1008.8
20240222035402 51 0 1.7 2.6 0.00 0.00 0.00 45 1008.8
20240222035202 51 248 1.7 2.6 0.00 0.00 0.00 45 1008.5
20240222034503 52 270 1.7 3.5 0.00 0.00 0.00 45 1008.5
20240222034403 52 270 1.7 3.5 0.00 0.00 0.00 45 1008.8
20240222034302 52 270 2.6 3.5 0.00 0.00 0.00 45 1008.8
20240222033602 52 270 2.6 3.5 0.00 0.00 0.00 45 1008.5
20240222033403 52 248 2.6 3.5 0.00 0.00 0.00 45 1008.5
20240222033203 52 270 2.6 3.5 0.00 0.00 0.00 45 1008.5
20240222032902 52 225 1.7 3.5 0.00 0.00 0.00 45 1008.5
20240222032802 52 225 2.6 3.5 0.00 0.00 0.00 45 1008.5
20240222032703 52 225 2.6 3.5 0.00 0.00 0.00 46 1008.5
20240222032306 52 225 2.6 3.5 0.00 0.00 0.00 45 1008.5
20240222032102 52 338 2.6 3.5 0.00 0.00 0.00 45 1008.5
20240222031902 52 270 3.5 3.5 0.00 0.00 0.00 45 1008.5
20240222031702 52 270 1.7 2.6 0.00 0.00 0.00 45 1008.5
20240222031503 52 248 1.7 2.6 0.00 0.00 0.00 45 1008.5
20240222031403 52 270 1.7 2.6 0.00 0.00 0.00 45 1008.5
20240222030802 52 248 1.7 4.3 0.00 0.00 0.00 45 1008.5
20240222030702 52 270 2.6 4.3 0.00 0.00 0.00 45 1008.5
20240222030603 52 270 3.5 4.3 0.00 0.00 0.00 45 1008.5
20240222030503 52 270 4.3 4.3 0.00 0.00 0.00 45 1008.5
20240222030402 52 248 4.3 4.3 0.00 0.00 0.00 45 1008.1
20240222030302 52 248 2.6 4.3 0.00 0.00 0.00 45 1008.1
20240222030103 52 270 4.3 4.3 0.00 0.00 0.00 45 1008.1
20240222025903 52 270 3.5 3.5 0.00 0.00 0.00 45 1008.1
20240222025603 53 338 2.6 4.3 0.00 0.00 0.00 45 1008.1
20240222025504 53 225 2.6 4.3 0.00 0.00 0.00 45 1008.1
20240222025403 53 225 3.5 4.3 0.00 0.00 0.00 45 1008.5
20240222025202 53 225 2.6 3.5 0.00 0.00 0.00 45 1008.1
20240222025004 53 225 3.5 3.5 0.00 0.00 0.00 45 1008.5
20240222024803 53 270 2.6 2.6 0.00 0.00 0.00 45 1008.5
20240222024603 53 270 2.6 2.6 0.00 0.00 0.00 45 1008.5
20240222024504 53 293 1.7 1.7 0.00 0.00 0.00 45 1008.5
20240222024302 53 270 1.7 1.7 0.00 0.00 0.00 45 1008.5
20240222024203 53 248 1.7 1.7 0.00 0.00 0.00 45 1008.5
20240222020503 54 248 3.5 3.5 0.00 0.00 0.00 44 1007.8
20240222020402 54 225 2.6 2.6 0.00 0.00 0.00 44 1007.8
20240222015703 55 225 2.6 4.3 0.00 0.00 0.00 43 1008.1
20240222015503 57 225 4.3 4.3 0.00 0.00 0.00 40 1008.1
20240222004703 57 270 3.5 3.5 0.00 0.00 0.00 40 1007.8
20240222004504 57 293 2.6 3.5 0.00 0.00 0.00 40 1007.8
20240222004203 57 270 2.6 4.3 0.00 0.00 0.00 40 1007.8
20240222004103 57 270 1.7 4.3 0.00 0.00 0.00 40 1007.8
20240222004004 58 270 4.3 4.3 0.00 0.00 0.00 40 1007.8
20240222003802 58 293 2.6 3.5 0.00 0.00 0.00 40 1007.8
20240222003603 58 225 2.6 4.3 0.00 0.00 0.00 40 1007.8
20240222003403 58 270 3.5 4.3 0.00 0.00 0.00 40 1007.8
20240222003004 58 248 1.7 2.6 0.00 0.00 0.00 39 1007.5
20240222002902 58 270 2.6 2.6 0.00 0.00 0.00 39 1007.5
20240222002803 58 270 1.7 2.6 0.00 0.00 0.00 37 1007.5
20240222002603 58 270 2.6 2.6 0.00 0.00 0.00 37 1007.5
20240222002203 59 225 1.7 2.6 0.00 0.00 0.00 35 1007.5
20240222002102 59 270 1.7 2.6 0.00 0.00 0.00 35 1007.5
20240222001603 59 270 2.6 2.6 0.00 0.00 0.00 35 1007.1
20240222001503 59 293 2.6 2.6 0.00 0.00 0.00 35 1007.1
20240222000603 60 293 2.6 6.1 0.00 0.00 0.00 35 1007.1
20240222000403 60 270 3.5 6.1 0.00 0.00 0.00 35 1006.8
20240222000103 60 270 6.1 6.1 0.00 0.00 0.00 35 1006.8
20240221235903 60 225 3.5 4.3 0.00 0.00 0.00 35 1007.1
20240221235703 60 338 2.6 4.3 0.00 0.00 0.00 35 1007.1
20240221235603 60 225 4.3 4.3 0.00 0.00 0.00 35 1006.8
20240221235504 60 225 2.6 3.5 0.00 0.00 0.00 35 1007.1
20240221235402 60 225 3.5 3.5 0.00 0.00 0.00 35 1006.8
20240221235203 61 270 1.7 3.5 0.00 0.00 0.00 35 1007.1
20240221234803 61 203 2.6 4.3 0.00 0.00 0.00 35 1006.8
20240221234703 61 248 2.6 4.3 0.00 0.00 0.00 35 1006.8
20240221234504 61 293 3.5 4.3 0.00 0.00 0.00 35 1006.8
20240221234103 61 270 3.5 3.5 0.00 0.00 0.00 34 1006.8
20240221233902 61 270 3.5 3.5 0.00 0.00 0.00 34 1006.8
20240221233802 61 225 2.6 2.6 0.00 0.00 0.00 34 1006.4
20240221233003 61 248 3.5 3.5 0.00 0.00 0.00 34 1006.8
20240221232902 62 293 3.5 3.5 0.00 0.00 0.00 34 1006.8
20240221232803 62 315 2.6 3.5 0.00 0.00 0.00 34 1006.8
20240221232504 62 270 2.6 4.3 0.00 0.00 0.00 34 1006.4
20240221232305 62 270 3.5 4.3 0.00 0.00 0.00 34 1006.8
20240221232003 62 225 2.6 3.5 0.00 0.00 0.00 34 1006.8
20240221231903 62 270 2.6 3.5 0.00 0.00 0.00 34 1006.8
20240221231802 62 270 3.5 3.5 0.00 0.00 0.00 34 1006.8
20240221231603 62 270 2.6 3.5 0.00 0.00 0.00 34 1006.4
20240221231402 62 270 3.5 3.5 0.00 0.00 0.00 34 1006.4
20240221231203 62 270 3.5 3.5 0.00 0.00 0.00 34 1006.8
20240221231102 62 270 2.6 2.6 0.00 0.00 0.00 34 1006.4
20240221230903 62 225 2.6 6.1 0.00 0.00 0.00 34 1006.4
20240221230703 63 270 2.6 6.1 0.00 0.00 0.00 34 1006.4
20240221230504 63 0 5.2 6.1 0.00 0.00 0.00 34 1006.4
20240221230103 63 293 1.7 3.5 0.00 0.00 0.00 34 1006.4
20240221230004 63 293 3.5 3.5 0.00 0.00 0.00 34 1006.4
20240221225602 63 0 3.5 4.3 0.00 0.00 0.00 34 1006.8
20240221225102 63 315 2.6 4.3 0.00 0.00 0.00 34 1006.4
20240221225004 63 315 4.3 4.3 0.00 0.00 0.00 34 1006.4
20240221224902 63 315 3.5 3.5 0.00 0.00 0.00 34 1006.4
20240221224702 63 270 3.5 3.5 0.00 0.00 0.00 34 1006.4
20240221224504 63 270 2.6 3.5 0.00 0.00 0.00 34 1006.4
20240221224402 63 248 3.5 3.5 0.00 0.00 0.00 34 1006.4
20240221224102 63 225 2.6 3.5 0.00 0.00 0.00 34 1006.4
20240221223902 63 225 3.5 3.5 0.00 0.00 0.00 34 1006.4
20240221223802 63 293 3.5 3.5 0.00 0.00 0.00 34 1006.4
20240221223702 63 225 2.6 3.5 0.00 0.00 0.00 34 1006.4
20240221223602 63 225 3.5 3.5 0.00 0.00 0.00 34 1006.8
20240221223004 63 270 2.6 3.5 0.00 0.00 0.00 32 1006.4
20240221222902 63 315 2.6 3.5 0.00 0.00 0.00 32 1006.4
20240221222802 63 270 3.5 3.5 0.00 0.00 0.00 32 1006.4
20240221222702 63 270 2.6 2.6 0.00 0.00 0.00 31 1006.4
20240221222503 63 315 2.6 2.6 0.00 0.00 0.00 32 1006.4
20240221222306 63 23 2.6 2.6 0.00 0.00 0.00 32 1006.8
20240221222102 63 248 2.6 2.6 0.00 0.00 0.00 32 1006.8
20240221222004 64 315 1.7 3.5 0.00 0.00 0.00 32 1006.4
20240221221902 64 248 1.7 3.5 0.00 0.00 0.00 32 1006.4
20240221221702 64 248 2.6 3.5 0.00 0.00 0.00 32 1006.8
20240221221602 64 293 3.5 3.5 0.00 0.00 0.00 32 1006.8
20240221221203 64 270 1.7 5.2 0.00 0.00 0.00 32 1006.8
20240221221103 64 270 5.2 5.2 0.00 0.00 0.00 34 1006.8
20240221220802 64 248 2.6 3.5 0.00 0.00 0.00 34 1006.8
20240221220503 64 315 2.6 2.6 0.00 0.00 0.00 32 1006.8
20240221220402 64 293 1.7 2.6 0.00 0.00 0.00 32 1006.8
20240221220303 64 293 1.7 3.5 0.00 0.00 0.00 32 1007.1
20240221220103 64 225 1.7 3.5 0.00 0.00 0.00 32 1007.1
20240221215902 64 180 2.6 3.5 0.00 0.00 0.00 32 1006.8
20240221215702 64 338 3.5 3.5 0.00 0.00 0.00 34 1006.8
20240221215503 64 270 1.7 3.5 0.00 0.00 0.00 34 1007.1
20240221215402 64 270 1.7 3.5 0.00 0.00 0.00 34 1006.8
20240221215202 64 0 3.5 3.5 0.00 0.00 0.00 34 1007.1
20240221215003 64 270 3.5 3.5 0.00 0.00 0.00 34 1007.1
20240221214803 64 270 1.7 3.5 0.00 0.00 0.00 34 1006.8
20240221214702 64 248 3.5 3.5 0.00 0.00 0.00 34 1007.1
20240221214602 64 270 3.5 3.5 0.00 0.00 0.00 34 1007.1
20240221214504 64 270 1.7 4.3 0.00 0.00 0.00 34 1007.1
20240221214302 64 270 2.6 4.3 0.00 0.00 0.00 34 1007.1
20240221214102 64 0 3.5 4.3 0.00 0.00 0.00 34 1007.1
20240221213903 64 270 2.6 3.5 0.00 0.00 0.00 34 1007.1
20240221213504 64 315 3.5 3.5 0.00 0.00 0.00 32 1007.5
20240221213303 64 315 2.6 3.5 0.00 0.00 0.00 34 1007.5
20240221213103 64 338 1.7 3.5 0.00 0.00 0.00 34 1007.1
20240221212803 64 180 3.5 3.5 0.00 0.00 0.00 34 1007.1
20240221212602 64 180 1.7 2.6 0.00 0.00 0.00 34 1007.5
20240221212402 64 203 2.6 2.6 0.00 0.00 0.00 34 1007.5
20240221212305 64 270 1.7 1.7 0.00 0.00 0.00 34 1007.5
20240221212103 64 248 1.7 4.3 0.00 0.00 0.00 34 1007.5
20240221211802 64 270 1.7 4.3 0.00 0.00 0.00 34 1007.5
20240221211703 64 270 4.3 4.3 0.00 0.00 0.00 34 1007.5
20240221211505 64 270 3.5 3.5 0.00 0.00 0.00 34 1007.8
20240221211103 64 270 2.6 3.5 0.00 0.00 0.00 35 1007.5
20240221210903 64 248 3.5 3.5 0.00 0.00 0.00 35 1007.5
20240221210503 64 248 1.7 2.6 0.00 0.00 0.00 34 1007.5
20240221210302 64 248 0.9 2.6 0.00 0.00 0.00 34 1007.8
20240221210004 64 248 2.6 2.6 0.00 0.00 0.00 34 1007.8
20240221205803 64 293 0.9 2.6 0.00 0.00 0.00 34 1007.8
20240221205603 64 270 1.7 2.6 0.00 0.00 0.00 35 1007.8
20240221205305 65 270 1.7 3.5 0.00 0.00 0.00 35 1007.8
20240221205202 65 180 1.7 3.5 0.00 0.00 0.00 35 1007.8
20240221205102 65 180 1.7 3.5 0.00 0.00 0.00 34 1008.1
20240221205004 65 270 2.6 3.5 0.00 0.00 0.00 34 1008.1
20240221204505 66 225 3.5 3.5 0.00 0.00 0.00 34 1008.1
20240221204402 66 225 2.6 2.6 0.00 0.00 0.00 34 1008.1
20240221204203 65 225 2.6 2.6 0.00 0.00 0.00 34 1007.8
20240221204103 66 225 2.6 2.6 0.00 0.00 0.00 35 1008.1
20240221203602 66 203 1.7 1.7 0.00 0.00 0.00 35 1008.1
20240221203502 66 225 0.9 0.9 0.00 0.00 0.00 35 1008.1
20240221202305 65 225 2.6 3.5 0.00 0.00 0.00 35 1008.5
20240221202103 66 225 3.5 3.5 0.00 0.00 0.00 35 1008.5
20240221202004 66 315 1.7 2.6 0.00 0.00 0.00 35 1008.5
20240221201903 66 180 2.6 2.6 0.00 0.00 0.00 35 1008.5
20240221201803 67 180 0.0 1.7 0.00 0.00 0.00 35 1008.5
20240221201603 69 158 0.0 1.7 0.00 0.00 0.00 35 1008.5
20240221201403 70 158 0.9 1.7 0.00 0.00 0.00 34 1008.5
20240221201303 70 158 0.9 2.6 0.00 0.00 0.00 34 1008.5
20240221201202 66 158 0.9 2.6 0.00 0.00 0.00 37 1008.5
20240221201004 65 293 1.7 2.6 0.00 0.00 0.00 37 1008.5
20240221200902 65 113 2.6 2.6 0.00 0.00 0.00 37 1008.8
20240221200803 64 113 2.6 2.6 0.00 0.00 0.00 37 1008.8
20240221200502 64 180 0.0 1.7 0.00 0.00 0.00 37 1008.5
20240221200303 64 293 1.7 1.7 0.00 0.00 0.00 37 1008.8
20240221195703 64 180 0.9 2.6 0.00 0.00 0.00 37 1008.8
20240221195403 64 270 0.9 3.5 0.00 0.00 0.00 37 1008.8
20240221195203 64 270 2.6 3.5 0.00 0.00 0.00 40 1008.8
20240221195003 64 270 3.5 3.5 0.00 0.00 0.00 40 1008.8
20240221194903 64 225 1.7 1.7 0.00 0.00 0.00 40 1008.8
20240221194402 63 225 1.7 1.7 0.00 0.00 0.00 40 1008.8
20240221194102 63 315 1.7 3.5 0.00 0.00 0.00 40 1008.8
20240221193803 63 270 3.5 3.5 0.00 0.00 0.00 40 1009.1
20240221193602 63 225 2.6 2.6 0.00 0.00 0.00 40 1009.1
20240221193403 63 225 2.6 2.6 0.00 0.00 0.00 41 1009.1
20240221193203 62 225 1.7 1.7 0.00 0.00 0.00 43 1009.1
20240221192502 62 270 3.5 3.5 0.00 0.00 0.00 43 1009.1
20240221192003 62 135 1.7 2.6 0.00 0.00 0.00 43 1009.1
20240221191802 62 225 2.6 3.5 0.00 0.00 0.00 43 1009.1
20240221191503 62 225 3.5 3.5 0.00 0.00 0.00 43 1009.1
20240221191202 62 293 1.7 1.7 0.00 0.00 0.00 43 1009.5
20240221190602 62 225 2.6 2.6 0.00 0.00 0.00 44 1009.5
20240221190502 61 225 1.7 1.7 0.00 0.00 0.00 44 1009.5
20240221185903 61 248 1.7 2.6 0.00 0.00 0.00 44 1009.8
20240221185802 61 270 1.7 2.6 0.00 0.00 0.00 44 1009.8
20240221185502 61 270 1.7 2.6 0.00 0.00 0.00 44 1009.5
20240221185305 61 270 2.6 2.6 0.00 0.00 0.00 44 1009.8
20240221185102 61 203 2.6 2.6 0.00 0.00 0.00 43 1009.8
20240221185003 60 68 2.6 2.6 0.00 0.00 0.00 44 1009.8
20240221184903 60 180 1.7 1.7 0.00 0.00 0.00 44 1009.8
20240221184803 60 180 1.7 3.5 0.00 0.00 0.00 44 1009.8
20240221184503 60 248 1.7 3.5 0.00 0.00 0.00 44 1009.8
20240221184402 60 248 3.5 3.5 0.00 0.00 0.00 43 1010.2
20240221184303 60 180 2.6 3.5 0.00 0.00 0.00 43 1010.2
20240221184203 60 180 3.5 3.5 0.00 0.00 0.00 43 1009.8
20240221184004 61 270 1.7 3.5 0.00 0.00 0.00 41 1010.5
20240221183802 61 158 0.9 1.7 0.00 0.00 0.00 41 1010.5
20240221183504 60 225 0.9 2.6 0.00 0.00 0.00 44 1010.5
20240221183403 60 248 0.9 2.6 0.00 0.00 0.00 44 1010.5
20240221183302 60 248 2.6 2.6 0.00 0.00 0.00 44 1010.5
20240221182903 59 180 1.7 2.6 0.00 0.00 0.00 43 1010.5
20240221182702 59 293 2.6 2.6 0.00 0.00 0.00 43 1010.5
20240221182602 59 270 2.6 2.6 0.00 0.00 0.00 45 1010.5
20240221182003 59 225 1.7 2.6 0.00 0.00 0.00 45 1010.5
20240221181503 59 315 0.9 2.6 0.00 0.00 0.00 45 1010.8
20240221181402 59 158 1.7 2.6 0.00 0.00 0.00 45 1010.8
20240221181103 59 158 1.7 2.6 0.00 0.00 0.00 45 1010.8
20240221180403 59 158 0.9 1.7 0.00 0.00 0.00 45 1011.5
20240221180302 59 180 1.7 1.7 0.00 0.00 0.00 45 1011.5
20240221175902 58 180 0.9 1.7 0.00 0.00 0.00 46 1011.2
20240221175802 58 225 0.9 1.7 0.00 0.00 0.00 46 1011.2
20240221175403 57 225 1.7 1.7 0.00 0.00 0.00 49 1011.2
20240221175203 57 203 1.7 1.7 0.00 0.00 0.00 49 1011.5
20240221175103 57 180 0.0 1.7 0.00 0.00 0.00 49 1011.5
20240221175004 57 180 1.7 1.7 0.00 0.00 0.00 49 1011.5
20240221174603 57 203 1.7 2.6 0.00 0.00 0.00 48 1011.5
20240221174202 57 203 2.6 2.6 0.00 0.00 0.00 48 1011.5
20240221173203 54 203 1.7 1.7 0.00 0.00 0.00 53 1011.5
20240221172903 54 225 1.7 2.6 0.00 0.00 0.00 53 1011.5
20240221172603 54 180 2.6 2.6 0.00 0.00 0.00 53 1011.9
20240221172402 54 158 0.9 0.9 0.00 0.00 0.00 53 1011.5
20240221170802 54 203 0.9 1.7 0.00 0.00 0.00 53 1011.9
20240221170503 54 203 1.7 1.7 0.00 0.00 0.00 53 1011.9
20240221170303 54 338 1.7 1.7 0.00 0.00 0.00 53 1011.9
20240221165702 52 248 2.6 2.6 0.00 0.00 0.00 54 1011.9
20240221165402 53 248 2.6 2.6 0.00 0.00 0.00 54 1011.9
20240221165305 53 248 1.7 1.7 0.00 0.00 0.00 54 1011.9
20240221164903 51 248 1.7 1.7 0.00 0.00 0.00 55 1011.9
20240221164802 51 248 1.7 2.6 0.00 0.00 0.00 55 1011.9
20240221164703 51 203 0.9 2.6 0.00 0.00 0.00 55 1011.9
20240221164502 51 203 1.7 2.6 0.00 0.00 0.00 55 1011.9
20240221164103 51 270 1.7 2.6 0.00 0.00 0.00 55 1012.2
20240221163803 51 90 2.6 2.6 0.00 0.00 0.00 55 1012.2
20240221163503 51 203 0.9 3.5 0.00 0.00 0.00 56 1012.2
20240221163302 51 248 3.5 3.5 0.00 0.00 0.00 56 1012.2
20240221163102 50 270 1.7 2.6 0.00 0.00 0.00 58 1012.2
20240221162903 50 180 2.6 2.6 0.00 0.00 0.00 58 1012.2
20240221162703 50 225 1.7 2.6 0.00 0.00 0.00 58 1012.2
20240221162305 50 270 2.6 2.6 0.00 0.00 0.00 58 1012.2
20240221162102 50 203 0.9 1.7 0.00 0.00 0.00 59 1012.2
20240221162003 50 158 0.9 1.7 0.00 0.00 0.00 59 1012.2
20240221161803 49 248 0.9 1.7 0.00 0.00 0.00 58 1012.2
20240221161703 49 248 1.7 1.7 0.00 0.00 0.00 60 1011.9
20240221161602 49 270 1.7 1.7 0.00 0.00 0.00 60 1012.2
20240221161504 49 270 0.9 1.7 0.00 0.00 0.00 60 1012.2
20240221161403 49 180 0.9 1.7 0.00 0.00 0.00 60 1012.2
20240221161102 48 225 1.7 1.7 0.00 0.00 0.00 61 1012.2
20240221161004 48 180 0.9 1.7 0.00 0.00 0.00 61 1012.2
20240221160802 48 180 0.9 1.7 0.00 0.00 0.00 61 1011.9
20240221160602 48 203 1.7 1.7 0.00 0.00 0.00 61 1011.9
20240221160502 48 225 1.7 1.7 0.00 0.00 0.00 61 1012.2
20240221160302 48 270 1.7 2.6 0.00 0.00 0.00 61 1011.9
20240221160203 48 270 0.9 2.6 0.00 0.00 0.00 61 1011.9
20240221155903 47 270 2.6 2.6 0.00 0.00 0.00 63 1012.2
20240221155703 47 225 2.6 2.6 0.00 0.00 0.00 63 1012.2
20240221155004 46 0 1.7 3.5 0.00 0.00 0.00 63 1012.5
20240221154802 46 270 3.5 3.5 0.00 0.00 0.00 63 1012.2
20240221154702 46 293 1.7 2.6 0.00 0.00 0.00 63 1012.2
20240221154603 46 293 1.7 1.7 0.00 0.00 0.00 65 1012.2
20240221154402 46 248 1.7 2.6 0.00 0.00 0.00 65 1012.5
20240221154302 46 315 1.7 2.6 0.00 0.00 0.00 65 1012.2
20240221154202 45 315 1.7 2.6 0.00 0.00 0.00 65 1012.2
20240221154003 45 270 2.6 2.6 0.00 0.00 0.00 65 1012.2
20240221153703 45 270 1.7 1.7 0.00 0.00 0.00 66 1012.2
20240221153602 44 270 1.7 1.7 0.00 0.00 0.00 68 1012.2
20240221153402 44 293 1.7 2.6 0.00 0.00 0.00 69 1012.5
20240221153203 44 225 1.7 2.6 0.00 0.00 0.00 69 1012.2
20240221153004 43 338 2.6 2.6 0.00 0.00 0.00 69 1012.2
20240221152503 42 270 2.6 2.6 0.00 0.00 0.00 71 1012.2
20240221152305 42 225 1.7 1.7 0.00 0.00 0.00 71 1012.2
20240221152103 42 270 1.7 2.6 0.00 0.00 0.00 71 1012.5
20240221151703 41 270 2.6 2.6 0.00 0.00 0.00 71 1012.5
20240221151602 41 315 1.7 1.7 0.00 0.00 0.00 71 1012.2
20240221151503 41 315 1.7 1.7 0.00 0.00 0.00 71 1012.5
20240221151403 41 293 0.9 1.7 0.00 0.00 0.00 71 1012.5
20240221151103 41 293 1.7 2.6 0.00 0.00 0.00 73 1012.5
20240221150802 41 270 2.6 2.6 0.00 0.00 0.00 73 1012.5
20240221150302 40 203 0.9 1.7 0.00 0.00 0.00 73 1012.5
20240221150203 40 270 1.7 1.7 0.00 0.00 0.00 73 1012.5
20240221150102 40 225 1.7 1.7 0.00 0.00 0.00 73 1012.5
20240221145903 40 225 0.9 1.7 0.00 0.00 0.00 73 1012.5
20240221145702 40 270 1.7 1.7 0.00 0.00 0.00 73 1012.5
20240221145602 40 248 1.7 1.7 0.00 0.00 0.00 73 1012.5
20240221145403 40 270 0.9 1.7 0.00 0.00 0.00 73 1012.5
20240221145306 40 248 1.7 1.7 0.00 0.00 0.00 73 1012.5
20240221145003 39 248 0.9 1.7 0.00 0.00 0.00 73 1012.5
20240221144903 39 248 0.9 1.7 0.00 0.00 0.00 73 1012.9
20240221144802 39 293 1.7 1.7 0.00 0.00 0.00 73 1012.5
20240221144703 39 293 0.9 1.7 0.00 0.00 0.00 73 1012.5
20240221144603 39 270 1.7 1.7 0.00 0.00 0.00 73 1012.9
20240221144402 39 270 0.9 1.7 0.00 0.00 0.00 73 1012.5
20240221144203 39 225 1.7 1.7 0.00 0.00 0.00 73 1012.9
20240221143803 39 270 1.7 1.7 0.00 0.00 0.00 73 1012.9
20240221143702 39 270 0.9 1.7 0.00 0.00 0.00 74 1012.9
20240221143503 39 270 1.7 1.7 0.00 0.00 0.00 74 1012.9
20240221143303 39 270 1.7 1.7 0.00 0.00 0.00 74 1012.5
20240221143202 39 270 1.7 1.7 0.00 0.00 0.00 74 1012.9
20240221142603 38 270 1.7 1.7 0.00 0.00 0.00 75 1012.9
20240221142403 38 248 0.0 0.0 0.00 0.00 0.00 75 1012.9
20240221142202 38 225 0.0 0.9 0.00 0.00 0.00 75 1012.5
20240221142004 37 225 0.0 0.9 0.00 0.00 0.00 76 1012.9
20240221141903 37 225 0.0 0.9 0.00 0.00 0.00 76 1012.9
20240221141802 37 225 0.9 0.9 0.00 0.00 0.00 76 1012.9
20240221141702 37 225 0.0 0.0 0.00 0.00 0.00 76 1012.9
20240221141602 37 203 0.0 0.0 0.00 0.00 0.00 76 1012.9
20240221141203 35 225 0.0 0.0 0.00 0.00 0.00 79 1013.2
20240221141004 35 203 0.0 0.0 0.00 0.00 0.00 79 1012.9
20240221140802 35 203 0.0 0.0 0.00 0.00 0.00 80 1012.9
20240221140603 34 180 0.0 0.0 0.00 0.00 0.00 80 1013.2
20240221140402 34 180 0.0 0.0 0.00 0.00 0.00 80 1012.9
20240221140203 34 180 0.0 0.0 0.00 0.00 0.00 80 1012.9
20240221135603 34 180 0.0 0.0 0.00 0.00 0.00 80 1012.9
20240221133004 34 180 0.0 1.7 0.00 0.00 0.00 81 1012.9
20240221132703 34 180 0.9 1.7 0.00 0.00 0.00 81 1012.9
20240221132503 34 180 1.7 1.7 0.00 0.00 0.00 81 1012.5
20240221132402 34 180 1.7 1.7 0.00 0.00 0.00 81 1012.9
20240221131803 34 180 0.0 0.0 0.00 0.00 0.00 81 1012.5
20240221125203 34 248 0.0 0.0 0.00 0.00 0.00 81 1012.5
20240221124802 33 248 0.0 0.0 0.00 0.00 0.00 81 1012.5
20240221124703 33 180 0.0 0.0 0.00 0.00 0.00 81 1012.5
20240221124504 33 180 0.0 0.0 0.00 0.00 0.00 81 1012.9
20240221124402 33 225 0.0 0.0 0.00 0.00 0.00 81 1012.9
20240221124303 33 158 0.0 0.0 0.00 0.00 0.00 81 1012.9